sensor_id;sensor_type;location;lat;lon;timestamp;temperature;humidity
48898;DHT22;34713;50.038;20.000;2022-08-01T00:00:36;23.00;60.86
48898;DHT22;34713;50.038;20.000;2022-08-01T00:03:04;23.00;60.85
48898;DHT22;34713;50.038;20.000;2022-08-01T00:05:31;23.00;60.81
48898;DHT22;34713;50.038;20.000;2022-08-01T00:07:57;23.02;60.74
48898;DHT22;34713;50.038;20.000;2022-08-01T00:10:23;23.02;60.67
48898;DHT22;34713;50.038;20.000;2022-08-01T00:12:49;22.99;60.65
48898;DHT22;34713;50.038;20.000;2022-08-01T00:15:16;22.96;60.74
48898;DHT22;34713;50.038;20.000;2022-08-01T00:17:43;22.96;60.74
48898;DHT22;34713;50.038;20.000;2022-08-01T00:20:12;22.95;60.67
48898;DHT22;34713;50.038;20.000;2022-08-01T00:22:38;22.96;60.64
48898;DHT22;34713;50.038;20.000;2022-08-01T00:25:05;22.99;60.59
48898;DHT22;34713;50.038;20.000;2022-08-01T00:27:31;23.00;60.51
48898;DHT22;34713;50.038;20.000;2022-08-01T00:29:57;22.97;60.48
48898;DHT22;34713;50.038;20.000;2022-08-01T00:32:23;22.99;60.45
48898;DHT22;34713;50.038;20.000;2022-08-01T00:34:49;23.00;60.42
48898;DHT22;34713;50.038;20.000;2022-08-01T00:37:15;22.99;60.37
48898;DHT22;34713;50.038;20.000;2022-08-01T00:39:42;23.00;60.35
48898;DHT22;34713;50.038;20.000;2022-08-01T00:42:11;23.02;60.28
48898;DHT22;34713;50.038;20.000;2022-08-01T00:44:38;22.97;60.28
48898;DHT22;34713;50.038;20.000;2022-08-01T00:47:05;22.96;60.31
48898;DHT22;34713;50.038;20.000;2022-08-01T00:49:31;22.96;60.28
48898;DHT22;34713;50.038;20.000;2022-08-01T00:51:57;22.97;60.20
48898;DHT22;34713;50.038;20.000;2022-08-01T00:54:25;22.93;60.19
48898;DHT22;34713;50.038;20.000;2022-08-01T00:56:52;22.96;60.19
48898;DHT22;34713;50.038;20.000;2022-08-01T00:59:21;22.90;60.22
48898;DHT22;34713;50.038;20.000;2022-08-01T01:01:48;22.92;60.25
48898;DHT22;34713;50.038;20.000;2022-08-01T01:04:14;22.93;60.13
48898;DHT22;34713;50.038;20.000;2022-08-01T01:07:09;22.92;60.12
48898;DHT22;34713;50.038;20.000;2022-08-01T01:10:00;22.90;60.09
48898;DHT22;34713;50.038;20.000;2022-08-01T01:12:35;22.89;60.10
48898;DHT22;34713;50.038;20.000;2022-08-01T01:15:29;22.92;60.02
48898;DHT22;34713;50.038;20.000;2022-08-01T01:18:11;22.89;60.03
48898;DHT22;34713;50.038;20.000;2022-08-01T01:20:40;22.92;59.96
48898;DHT22;34713;50.038;20.000;2022-08-01T01:29:21;22.83;60.02
48898;DHT22;34713;50.038;20.000;2022-08-01T01:31:57;22.82;60.06
48898;DHT22;34713;50.038;20.000;2022-08-01T01:34:23;22.86;60.04
48898;DHT22;34713;50.038;20.000;2022-08-01T01:36:51;22.88;60.06
48898;DHT22;34713;50.038;20.000;2022-08-01T01:39:20;22.86;59.98
48898;DHT22;34713;50.038;20.000;2022-08-01T01:41:48;22.88;59.97
48898;DHT22;34713;50.038;20.000;2022-08-01T01:44:16;22.86;59.93
48898;DHT22;34713;50.038;20.000;2022-08-01T01:46:43;22.85;59.98
48898;DHT22;34713;50.038;20.000;2022-08-01T01:49:10;22.88;59.98
48898;DHT22;34713;50.038;20.000;2022-08-01T01:51:38;22.83;60.00
48898;DHT22;34713;50.038;20.000;2022-08-01T01:54:05;22.83;60.06
48898;DHT22;34713;50.038;20.000;2022-08-01T01:56:33;22.79;60.11
48898;DHT22;34713;50.038;20.000;2022-08-01T01:59:02;22.80;60.06
48898;DHT22;34713;50.038;20.000;2022-08-01T02:01:31;22.80;60.03
48898;DHT22;34713;50.038;20.000;2022-08-01T02:03:59;22.80;60.03
48898;DHT22;34713;50.038;20.000;2022-08-01T02:06:26;22.75;60.11
48898;DHT22;34713;50.038;20.000;2022-08-01T02:08:54;22.75;60.11
48898;DHT22;34713;50.038;20.000;2022-08-01T02:11:21;22.74;60.08
48898;DHT22;34713;50.038;20.000;2022-08-01T02:14:01;22.75;60.04
48898;DHT22;34713;50.038;20.000;2022-08-01T02:16:29;22.76;60.00
48898;DHT22;34713;50.038;20.000;2022-08-01T02:18:57;22.75;59.96
48898;DHT22;34713;50.038;20.000;2022-08-01T02:21:28;22.75;59.91
48898;DHT22;34713;50.038;20.000;2022-08-01T02:24:10;22.76;59.94
48898;DHT22;34713;50.038;20.000;2022-08-01T02:26:38;22.74;59.89
48898;DHT22;34713;50.038;20.000;2022-08-01T02:29:07;22.74;59.83
48898;DHT22;34713;50.038;20.000;2022-08-01T02:31:38;22.72;59.86
48898;DHT22;34713;50.038;20.000;2022-08-01T02:34:09;22.72;59.80
48898;DHT22;34713;50.038;20.000;2022-08-01T02:36:35;22.69;59.88
48898;DHT22;34713;50.038;20.000;2022-08-01T02:39:09;22.69;59.82
48898;DHT22;34713;50.038;20.000;2022-08-01T02:41:41;22.67;59.72
48898;DHT22;34713;50.038;20.000;2022-08-01T02:44:08;22.59;59.96
48898;DHT22;34713;50.038;20.000;2022-08-01T02:46:44;22.62;59.86
48898;DHT22;34713;50.038;20.000;2022-08-01T02:49:11;22.62;59.74
48898;DHT22;34713;50.038;20.000;2022-08-01T02:51:39;22.62;59.69
48898;DHT22;34713;50.038;20.000;2022-08-01T02:54:08;22.47;59.78
48898;DHT22;34713;50.038;20.000;2022-08-01T02:56:36;21.86;61.02
48898;DHT22;34713;50.038;20.000;2022-08-01T02:59:10;21.25;62.58
48898;DHT22;34713;50.038;20.000;2022-08-01T03:01:37;21.10;63.50
48898;DHT22;34713;50.038;20.000;2022-08-01T03:04:05;21.38;62.95
48898;DHT22;34713;50.038;20.000;2022-08-01T03:06:32;21.62;62.19
48898;DHT22;34713;50.038;20.000;2022-08-01T03:09:02;21.77;61.68
48898;DHT22;34713;50.038;20.000;2022-08-01T03:11:29;21.86;61.34
48898;DHT22;34713;50.038;20.000;2022-08-01T03:14:02;21.92;61.12
48898;DHT22;34713;50.038;20.000;2022-08-01T03:16:31;21.93;60.89
48898;DHT22;34713;50.038;20.000;2022-08-01T03:19:00;21.93;60.76
48898;DHT22;34713;50.038;20.000;2022-08-01T03:21:28;22.01;60.63
48898;DHT22;34713;50.038;20.000;2022-08-01T03:23:57;22.03;60.44
48898;DHT22;34713;50.038;20.000;2022-08-01T03:26:30;22.09;60.29
48898;DHT22;34713;50.038;20.000;2022-08-01T03:29:02;22.13;60.07
48898;DHT22;34713;50.038;20.000;2022-08-01T03:31:28;22.17;59.97
48898;DHT22;34713;50.038;20.000;2022-08-01T03:33:54;22.17;59.83
48898;DHT22;34713;50.038;20.000;2022-08-01T03:36:25;22.20;59.75
48898;DHT22;34713;50.038;20.000;2022-08-01T03:38:53;22.18;59.71
48898;DHT22;34713;50.038;20.000;2022-08-01T03:41:25;22.20;59.65
48898;DHT22;34713;50.038;20.000;2022-08-01T03:44:00;22.23;59.63
48898;DHT22;34713;50.038;20.000;2022-08-01T03:46:47;22.24;59.59
48898;DHT22;34713;50.038;20.000;2022-08-01T03:49:28;22.25;59.52
48898;DHT22;34713;50.038;20.000;2022-08-01T03:51:51;22.31;59.44
48898;DHT22;34713;50.038;20.000;2022-08-01T03:54:24;22.00;59.76
48898;DHT22;34713;50.038;20.000;2022-08-01T03:56:52;21.38;61.24
48898;DHT22;34713;50.038;20.000;2022-08-01T03:59:18;20.87;62.77
48898;DHT22;34713;50.038;20.000;2022-08-01T04:01:45;20.74;63.75
48898;DHT22;34713;50.038;20.000;2022-08-01T04:04:12;21.14;63.07
48898;DHT22;34713;50.038;20.000;2022-08-01T04:06:40;21.45;62.33
48898;DHT22;34713;50.038;20.000;2022-08-01T04:09:09;21.72;61.82
48898;DHT22;34713;50.038;20.000;2022-08-01T04:11:36;21.90;61.43
48898;DHT22;34713;50.038;20.000;2022-08-01T04:14:02;22.09;61.06
48898;DHT22;34713;50.038;20.000;2022-08-01T04:16:29;22.24;60.78
48898;DHT22;34713;50.038;20.000;2022-08-01T04:18:55;22.45;60.51
48898;DHT22;34713;50.038;20.000;2022-08-01T04:21:24;22.67;60.24
48898;DHT22;34713;50.038;20.000;2022-08-01T04:23:53;22.88;59.84
48898;DHT22;34713;50.038;20.000;2022-08-01T04:26:19;23.10;59.42
48898;DHT22;34713;50.038;20.000;2022-08-01T04:28:48;23.06;59.35
48898;DHT22;34713;50.038;20.000;2022-08-01T04:31:16;22.65;60.61
48898;DHT22;34713;50.038;20.000;2022-08-01T04:33:47;22.31;61.72
48898;DHT22;34713;50.038;20.000;2022-08-01T04:36:14;22.04;62.80
48898;DHT22;34713;50.038;20.000;2022-08-01T04:38:45;22.21;63.16
48898;DHT22;34713;50.038;20.000;2022-08-01T04:41:13;22.82;61.71
48898;DHT22;34713;50.038;20.000;2022-08-01T04:43:40;23.37;60.38
48898;DHT22;34713;50.038;20.000;2022-08-01T04:46:08;23.74;59.28
48898;DHT22;34713;50.038;20.000;2022-08-01T04:48:37;23.74;58.74
48898;DHT22;34713;50.038;20.000;2022-08-01T04:51:09;23.36;59.57
48898;DHT22;34713;50.038;20.000;2022-08-01T04:53:32;22.93;60.56
48898;DHT22;34713;50.038;20.000;2022-08-01T04:55:58;22.68;61.38
48898;DHT22;34713;50.038;20.000;2022-08-01T04:58:24;22.58;61.98
48898;DHT22;34713;50.038;20.000;2022-08-01T05:00:49;22.69;62.32
48898;DHT22;34713;50.038;20.000;2022-08-01T05:03:15;22.90;62.23
48898;DHT22;34713;50.038;20.000;2022-08-01T05:05:41;23.24;61.84
48898;DHT22;34713;50.038;20.000;2022-08-01T05:08:07;23.68;61.14
48898;DHT22;34713;50.038;20.000;2022-08-01T05:10:33;24.13;60.33
48898;DHT22;34713;50.038;20.000;2022-08-01T05:12:59;24.56;59.44
48898;DHT22;34713;50.038;20.000;2022-08-01T05:15:25;24.78;58.51
48898;DHT22;34713;50.038;20.000;2022-08-01T05:17:50;25.12;57.92
48898;DHT22;34713;50.038;20.000;2022-08-01T05:20:16;25.29;57.20
48898;DHT22;34713;50.038;20.000;2022-08-01T05:22:42;25.60;56.42
48898;DHT22;34713;50.038;20.000;2022-08-01T05:25:08;25.73;55.70
48898;DHT22;34713;50.038;20.000;2022-08-01T05:27:34;25.67;55.87
48898;DHT22;34713;50.038;20.000;2022-08-01T05:30:02;25.91;55.67
48898;DHT22;34713;50.038;20.000;2022-08-01T05:32:28;26.36;55.57
48898;DHT22;34713;50.038;20.000;2022-08-01T05:34:55;26.62;55.42
48898;DHT22;34713;50.038;20.000;2022-08-01T05:37:21;26.79;55.14
48898;DHT22;34713;50.038;20.000;2022-08-01T05:39:47;26.86;54.80
48898;DHT22;34713;50.038;20.000;2022-08-01T05:42:12;26.99;54.43
48898;DHT22;34713;50.038;20.000;2022-08-01T05:44:38;27.24;53.82
48898;DHT22;34713;50.038;20.000;2022-08-01T05:47:04;27.75;52.52
48898;DHT22;34713;50.038;20.000;2022-08-01T05:49:30;28.71;49.80
48898;DHT22;34713;50.038;20.000;2022-08-01T05:51:56;29.98;47.26
48898;DHT22;34713;50.038;20.000;2022-08-01T05:54:21;31.51;44.34
48898;DHT22;34713;50.038;20.000;2022-08-01T05:56:47;33.08;41.72
48898;DHT22;34713;50.038;20.000;2022-08-01T05:59:13;34.59;39.29
48898;DHT22;34713;50.038;20.000;2022-08-01T06:01:39;36.06;36.93
48898;DHT22;34713;50.038;20.000;2022-08-01T06:04:04;37.12;35.38
48898;DHT22;34713;50.038;20.000;2022-08-01T06:06:30;38.23;33.75
48898;DHT22;34713;50.038;20.000;2022-08-01T06:08:56;39.32;32.36
48898;DHT22;34713;50.038;20.000;2022-08-01T06:11:22;40.42;30.76
48898;DHT22;34713;50.038;20.000;2022-08-01T06:13:47;41.40;29.65
48898;DHT22;34713;50.038;20.000;2022-08-01T06:16:13;42.30;28.45
48898;DHT22;34713;50.038;20.000;2022-08-01T06:18:39;43.19;27.87
48898;DHT22;34713;50.038;20.000;2022-08-01T06:21:05;44.08;26.54
48898;DHT22;34713;50.038;20.000;2022-08-01T06:23:30;44.90;25.40
48898;DHT22;34713;50.038;20.000;2022-08-01T06:25:56;45.65;24.47
48898;DHT22;34713;50.038;20.000;2022-08-01T06:28:24;46.42;23.46
48898;DHT22;34713;50.038;20.000;2022-08-01T06:30:50;47.06;22.85
48898;DHT22;34713;50.038;20.000;2022-08-01T06:33:16;47.68;22.17
48898;DHT22;34713;50.038;20.000;2022-08-01T06:35:41;48.26;21.96
48898;DHT22;34713;50.038;20.000;2022-08-01T06:38:07;48.91;21.15
48898;DHT22;34713;50.038;20.000;2022-08-01T06:40:33;49.45;20.33
48898;DHT22;34713;50.038;20.000;2022-08-01T06:42:59;49.93;19.60
48898;DHT22;34713;50.038;20.000;2022-08-01T06:45:25;50.34;19.33
48898;DHT22;34713;50.038;20.000;2022-08-01T06:47:52;50.72;19.05
48898;DHT22;34713;50.038;20.000;2022-08-01T06:50:19;51.13;18.33
48898;DHT22;34713;50.038;20.000;2022-08-01T06:52:45;51.42;18.23
48898;DHT22;34713;50.038;20.000;2022-08-01T06:55:11;51.70;17.88
48898;DHT22;34713;50.038;20.000;2022-08-01T06:57:46;51.97;17.29
48898;DHT22;34713;50.038;20.000;2022-08-01T07:00:12;52.11;17.20
48898;DHT22;34713;50.038;20.000;2022-08-01T07:02:39;52.14;17.23
48898;DHT22;34713;50.038;20.000;2022-08-01T07:05:05;52.17;17.10
48898;DHT22;34713;50.038;20.000;2022-08-01T07:07:31;52.22;16.69
48898;DHT22;34713;50.038;20.000;2022-08-01T07:09:56;52.15;16.87
48898;DHT22;34713;50.038;20.000;2022-08-01T07:12:22;51.83;17.25
48898;DHT22;34713;50.038;20.000;2022-08-01T07:14:48;51.50;17.74
48898;DHT22;34713;50.038;20.000;2022-08-01T07:17:14;51.25;17.59
48898;DHT22;34713;50.038;20.000;2022-08-01T07:19:39;51.16;17.87
48898;DHT22;34713;50.038;20.000;2022-08-01T07:22:05;51.09;18.05
48898;DHT22;34713;50.038;20.000;2022-08-01T07:24:31;50.71;17.98
48898;DHT22;34713;50.038;20.000;2022-08-01T07:26:57;49.80;18.21
48898;DHT22;34713;50.038;20.000;2022-08-01T07:29:27;48.36;19.25
48898;DHT22;34713;50.038;20.000;2022-08-01T07:31:55;46.83;20.35
48898;DHT22;34713;50.038;20.000;2022-08-01T07:34:22;45.34;21.55
48898;DHT22;34713;50.038;20.000;2022-08-01T07:36:48;44.03;23.24
48898;DHT22;34713;50.038;20.000;2022-08-01T07:39:14;42.86;24.15
48898;DHT22;34713;50.038;20.000;2022-08-01T07:41:40;41.85;24.79
48898;DHT22;34713;50.038;20.000;2022-08-01T07:44:06;40.85;25.64
48898;DHT22;34713;50.038;20.000;2022-08-01T07:46:31;39.94;26.66
48898;DHT22;34713;50.038;20.000;2022-08-01T07:48:57;39.19;27.46
48898;DHT22;34713;50.038;20.000;2022-08-01T07:51:23;38.48;27.73
48898;DHT22;34713;50.038;20.000;2022-08-01T07:53:48;37.83;28.30
48898;DHT22;34713;50.038;20.000;2022-08-01T07:56:14;37.25;28.62
48898;DHT22;34713;50.038;20.000;2022-08-01T07:58:40;36.62;29.27
48898;DHT22;34713;50.038;20.000;2022-08-01T08:01:06;36.08;29.82
48898;DHT22;34713;50.038;20.000;2022-08-01T08:03:32;35.58;30.44
48898;DHT22;34713;50.038;20.000;2022-08-01T08:05:58;35.10;31.10
48898;DHT22;34713;50.038;20.000;2022-08-01T08:08:23;34.75;31.96
48898;DHT22;34713;50.038;20.000;2022-08-01T08:10:49;34.49;31.58
48898;DHT22;34713;50.038;20.000;2022-08-01T08:13:15;34.08;31.82
48898;DHT22;34713;50.038;20.000;2022-08-01T08:15:41;33.77;32.52
48898;DHT22;34713;50.038;20.000;2022-08-01T08:18:07;33.53;33.08
48898;DHT22;34713;50.038;20.000;2022-08-01T08:20:33;33.32;32.89
48898;DHT22;34713;50.038;20.000;2022-08-01T08:23:00;33.13;32.87
48898;DHT22;34713;50.038;20.000;2022-08-01T08:25:26;32.92;33.17
48898;DHT22;34713;50.038;20.000;2022-08-01T08:27:53;32.75;33.57
48898;DHT22;34713;50.038;20.000;2022-08-01T08:30:19;32.61;33.40
48898;DHT22;34713;50.038;20.000;2022-08-01T08:32:45;32.45;33.20
48898;DHT22;34713;50.038;20.000;2022-08-01T08:35:11;32.24;34.06
48898;DHT22;34713;50.038;20.000;2022-08-01T08:37:37;32.10;33.87
48898;DHT22;34713;50.038;20.000;2022-08-01T08:40:05;31.95;33.93
48898;DHT22;34713;50.038;20.000;2022-08-01T08:42:31;31.82;34.32
48898;DHT22;34713;50.038;20.000;2022-08-01T08:44:57;31.71;34.38
48898;DHT22;34713;50.038;20.000;2022-08-01T08:47:24;31.61;34.65
48898;DHT22;34713;50.038;20.000;2022-08-01T08:49:53;31.46;35.15
48898;DHT22;34713;50.038;20.000;2022-08-01T08:52:21;31.35;35.06
48898;DHT22;34713;50.038;20.000;2022-08-01T08:54:50;31.21;35.22
48898;DHT22;34713;50.038;20.000;2022-08-01T08:57:19;31.09;34.56
48898;DHT22;34713;50.038;20.000;2022-08-01T08:59:46;30.90;35.19
48898;DHT22;34713;50.038;20.000;2022-08-01T09:02:12;30.84;36.13
48898;DHT22;34713;50.038;20.000;2022-08-01T09:04:38;30.74;36.29
48898;DHT22;34713;50.038;20.000;2022-08-01T09:07:06;30.67;36.44
48898;DHT22;34713;50.038;20.000;2022-08-01T09:09:33;30.62;36.29
48898;DHT22;34713;50.038;20.000;2022-08-01T09:11:59;30.56;36.15
48898;DHT22;34713;50.038;20.000;2022-08-01T09:14:26;30.52;36.32
48898;DHT22;34713;50.038;20.000;2022-08-01T09:17:07;30.43;36.05
48898;DHT22;34713;50.038;20.000;2022-08-01T09:19:44;30.32;36.30
48898;DHT22;34713;50.038;20.000;2022-08-01T09:22:19;30.26;36.01
48898;DHT22;34713;50.038;20.000;2022-08-01T09:24:42;30.16;35.94
48898;DHT22;34713;50.038;20.000;2022-08-01T09:27:20;30.09;35.70
48898;DHT22;34713;50.038;20.000;2022-08-01T09:29:46;30.03;36.81
48898;DHT22;34713;50.038;20.000;2022-08-01T09:32:12;29.98;37.02
48898;DHT22;34713;50.038;20.000;2022-08-01T09:34:38;29.90;37.40
48898;DHT22;34713;50.038;20.000;2022-08-01T09:37:04;29.83;36.96
48898;DHT22;34713;50.038;20.000;2022-08-01T09:39:36;29.70;36.93
48898;DHT22;34713;50.038;20.000;2022-08-01T09:42:24;29.63;36.43
48898;DHT22;34713;50.038;20.000;2022-08-01T09:44:51;29.49;36.42
48898;DHT22;34713;50.038;20.000;2022-08-01T09:47:19;29.40;36.26
48898;DHT22;34713;50.038;20.000;2022-08-01T09:49:55;29.25;37.23
48898;DHT22;34713;50.038;20.000;2022-08-01T09:52:24;29.18;37.32
48898;DHT22;34713;50.038;20.000;2022-08-01T09:55:01;29.16;37.66
48898;DHT22;34713;50.038;20.000;2022-08-01T09:57:28;29.10;37.96
48898;DHT22;34713;50.038;20.000;2022-08-01T09:59:58;29.08;37.79
48898;DHT22;34713;50.038;20.000;2022-08-01T10:02:36;29.03;38.01
48898;DHT22;34713;50.038;20.000;2022-08-01T10:05:06;29.03;38.22
48898;DHT22;34713;50.038;20.000;2022-08-01T10:07:32;29.02;37.80
48898;DHT22;34713;50.038;20.000;2022-08-01T10:10:11;28.98;37.68
48898;DHT22;34713;50.038;20.000;2022-08-01T10:12:37;28.92;38.22
48898;DHT22;34713;50.038;20.000;2022-08-01T10:15:05;28.91;38.40
48898;DHT22;34713;50.038;20.000;2022-08-01T10:17:32;28.89;37.89
48898;DHT22;34713;50.038;20.000;2022-08-01T10:20:03;28.91;37.85
48898;DHT22;34713;50.038;20.000;2022-08-01T10:22:31;28.91;38.10
48898;DHT22;34713;50.038;20.000;2022-08-01T10:24:57;28.92;38.01
48898;DHT22;34713;50.038;20.000;2022-08-01T10:27:25;28.88;38.09
48898;DHT22;34713;50.038;20.000;2022-08-01T10:30:00;28.92;38.63
48898;DHT22;34713;50.038;20.000;2022-08-01T10:32:30;28.94;37.95
48898;DHT22;34713;50.038;20.000;2022-08-01T10:34:56;28.92;37.79
48898;DHT22;34713;50.038;20.000;2022-08-01T10:37:22;28.91;38.05
48898;DHT22;34713;50.038;20.000;2022-08-01T10:39:51;28.85;37.83
48898;DHT22;34713;50.038;20.000;2022-08-01T10:42:18;28.88;38.43
48898;DHT22;34713;50.038;20.000;2022-08-01T10:44:45;28.87;37.92
48898;DHT22;34713;50.038;20.000;2022-08-01T10:47:35;28.82;37.76
48898;DHT22;34713;50.038;20.000;2022-08-01T10:53:26;28.78;38.11
48898;DHT22;34713;50.038;20.000;2022-08-01T10:56:03;28.77;38.34
48898;DHT22;34713;50.038;20.000;2022-08-01T10:58:35;28.77;38.34
48898;DHT22;34713;50.038;20.000;2022-08-01T11:01:29;28.78;38.08
48898;DHT22;34713;50.038;20.000;2022-08-01T11:04:14;28.81;37.98
48898;DHT22;34713;50.038;20.000;2022-08-01T11:06:52;28.84;37.88
48898;DHT22;34713;50.038;20.000;2022-08-01T11:09:23;28.85;38.13
48898;DHT22;34713;50.038;20.000;2022-08-01T11:12:11;28.88;38.03
48898;DHT22;34713;50.038;20.000;2022-08-01T11:17:40;28.99;38.16
48898;DHT22;34713;50.038;20.000;2022-08-01T11:28:19;29.18;37.13
48898;DHT22;34713;50.038;20.000;2022-08-01T11:31:24;29.22;37.20
48898;DHT22;34713;50.038;20.000;2022-08-01T11:36:17;29.29;37.25
48898;DHT22;34713;50.038;20.000;2022-08-01T11:41:30;29.45;36.83
48898;DHT22;34713;50.038;20.000;2022-08-01T11:44:14;29.50;36.42
48898;DHT22;34713;50.038;20.000;2022-08-01T11:52:27;29.61;36.64
48898;DHT22;34713;50.038;20.000;2022-08-01T11:55:06;29.66;36.60
48898;DHT22;34713;50.038;20.000;2022-08-01T11:57:33;29.68;36.54
48898;DHT22;34713;50.038;20.000;2022-08-01T12:00:13;29.67;36.34
48898;DHT22;34713;50.038;20.000;2022-08-01T12:02:39;29.67;36.89
48898;DHT22;34713;50.038;20.000;2022-08-01T12:05:09;29.67;36.99
48898;DHT22;34713;50.038;20.000;2022-08-01T12:07:38;29.71;37.14
48898;DHT22;34713;50.038;20.000;2022-08-01T12:12:47;29.74;36.94
48898;DHT22;34713;50.038;20.000;2022-08-01T12:15:19;29.78;36.90
48898;DHT22;34713;50.038;20.000;2022-08-01T12:17:48;29.81;37.25
48898;DHT22;34713;50.038;20.000;2022-08-01T12:20:21;29.84;37.37
48898;DHT22;34713;50.038;20.000;2022-08-01T12:22:52;29.83;37.61
48898;DHT22;34713;50.038;20.000;2022-08-01T12:25:17;29.80;37.47
48898;DHT22;34713;50.038;20.000;2022-08-01T12:27:46;29.77;37.58
48898;DHT22;34713;50.038;20.000;2022-08-01T12:30:19;29.73;37.58
48898;DHT22;34713;50.038;20.000;2022-08-01T12:32:47;29.74;37.70
48898;DHT22;34713;50.038;20.000;2022-08-01T12:35:17;29.71;37.56
48898;DHT22;34713;50.038;20.000;2022-08-01T12:37:50;29.67;37.76
48898;DHT22;34713;50.038;20.000;2022-08-01T12:40:31;29.68;37.87
48898;DHT22;34713;50.038;20.000;2022-08-01T12:43:02;29.66;37.57
48898;DHT22;34713;50.038;20.000;2022-08-01T12:45:33;29.61;37.66
48898;DHT22;34713;50.038;20.000;2022-08-01T12:48:00;29.60;38.14
48898;DHT22;34713;50.038;20.000;2022-08-01T12:50:29;29.61;38.03
48898;DHT22;34713;50.038;20.000;2022-08-01T12:52:56;29.57;38.05
48898;DHT22;34713;50.038;20.000;2022-08-01T12:55:24;29.56;38.27
48898;DHT22;34713;50.038;20.000;2022-08-01T12:58:09;29.54;38.16
48898;DHT22;34713;50.038;20.000;2022-08-01T13:00:37;29.54;38.19
48898;DHT22;34713;50.038;20.000;2022-08-01T13:03:09;29.49;38.24
48898;DHT22;34713;50.038;20.000;2022-08-01T13:05:48;29.45;38.32
48898;DHT22;34713;50.038;20.000;2022-08-01T13:08:21;29.40;38.54
48898;DHT22;34713;50.038;20.000;2022-08-01T13:10:45;29.40;38.61
48898;DHT22;34713;50.038;20.000;2022-08-01T13:13:13;29.37;38.77
48898;DHT22;34713;50.038;20.000;2022-08-01T13:15:41;29.33;38.80
48898;DHT22;34713;50.038;20.000;2022-08-01T13:18:29;29.30;39.18
48898;DHT22;34713;50.038;20.000;2022-08-01T13:21:20;29.29;39.32
48898;DHT22;34713;50.038;20.000;2022-08-01T13:24:12;29.26;39.63
48898;DHT22;34713;50.038;20.000;2022-08-01T13:26:56;29.21;39.56
48898;DHT22;34713;50.038;20.000;2022-08-01T13:29:39;29.12;39.86
48898;DHT22;34713;50.038;20.000;2022-08-01T13:32:19;29.06;39.94
48898;DHT22;34713;50.038;20.000;2022-08-01T13:34:45;29.01;39.68
48898;DHT22;34713;50.038;20.000;2022-08-01T13:37:11;28.92;39.44
48898;DHT22;34713;50.038;20.000;2022-08-01T13:39:38;28.87;38.89
48898;DHT22;34713;50.038;20.000;2022-08-01T13:42:12;28.74;38.55
48898;DHT22;34713;50.038;20.000;2022-08-01T13:44:38;28.68;38.10
48898;DHT22;34713;50.038;20.000;2022-08-01T13:47:05;28.57;37.69
48898;DHT22;34713;50.038;20.000;2022-08-01T13:49:31;28.46;37.24
48898;DHT22;34713;50.038;20.000;2022-08-01T13:51:58;28.37;37.27
48898;DHT22;34713;50.038;20.000;2022-08-01T13:54:24;28.33;37.20
48898;DHT22;34713;50.038;20.000;2022-08-01T13:56:51;28.24;37.19
48898;DHT22;34713;50.038;20.000;2022-08-01T13:59:16;28.18;37.35
48898;DHT22;34713;50.038;20.000;2022-08-01T14:01:42;28.12;37.51
48898;DHT22;34713;50.038;20.000;2022-08-01T14:04:08;27.99;37.94
48898;DHT22;34713;50.038;20.000;2022-08-01T14:06:34;27.89;38.25
48898;DHT22;34713;50.038;20.000;2022-08-01T14:09:04;27.86;38.51
48898;DHT22;34713;50.038;20.000;2022-08-01T14:11:30;27.76;38.86
48898;DHT22;34713;50.038;20.000;2022-08-01T14:13:57;27.66;39.29
48898;DHT22;34713;50.038;20.000;2022-08-01T14:16:23;27.62;39.57
48898;DHT22;34713;50.038;20.000;2022-08-01T14:18:48;27.58;39.87
48898;DHT22;34713;50.038;20.000;2022-08-01T14:21:14;27.54;40.25
48898;DHT22;34713;50.038;20.000;2022-08-01T14:23:41;27.57;40.53
48898;DHT22;34713;50.038;20.000;2022-08-01T14:26:09;27.54;40.83
48898;DHT22;34713;50.038;20.000;2022-08-01T14:28:39;27.54;41.11
48898;DHT22;34713;50.038;20.000;2022-08-01T14:31:05;27.54;41.37
48898;DHT22;34713;50.038;20.000;2022-08-01T14:33:33;27.61;41.52
48898;DHT22;34713;50.038;20.000;2022-08-01T14:35:59;27.62;41.61
48898;DHT22;34713;50.038;20.000;2022-08-01T14:38:25;27.62;41.78
48898;DHT22;34713;50.038;20.000;2022-08-01T14:40:50;27.68;41.99
48898;DHT22;34713;50.038;20.000;2022-08-01T14:43:20;27.75;42.13
48898;DHT22;34713;50.038;20.000;2022-08-01T14:45:47;27.76;42.31
48898;DHT22;34713;50.038;20.000;2022-08-01T14:48:17;27.79;42.49
48898;DHT22;34713;50.038;20.000;2022-08-01T14:50:44;27.82;42.51
48898;DHT22;34713;50.038;20.000;2022-08-01T14:53:10;27.88;42.44
48898;DHT22;34713;50.038;20.000;2022-08-01T14:55:36;27.89;42.42
48898;DHT22;34713;50.038;20.000;2022-08-01T14:58:01;27.92;42.22
48898;DHT22;34713;50.038;20.000;2022-08-01T15:00:28;27.93;41.97
48898;DHT22;34713;50.038;20.000;2022-08-01T15:02:54;27.96;42.17
48898;DHT22;34713;50.038;20.000;2022-08-01T15:05:20;28.06;42.14
48898;DHT22;34713;50.038;20.000;2022-08-01T15:07:46;28.10;42.12
48898;DHT22;34713;50.038;20.000;2022-08-01T15:10:12;28.18;42.09
48898;DHT22;34713;50.038;20.000;2022-08-01T15:12:38;28.20;42.15
48898;DHT22;34713;50.038;20.000;2022-08-01T15:15:06;28.23;42.23
48898;DHT22;34713;50.038;20.000;2022-08-01T15:17:32;28.30;42.33
48898;DHT22;34713;50.038;20.000;2022-08-01T15:20:01;28.31;42.35
48898;DHT22;34713;50.038;20.000;2022-08-01T15:22:28;28.31;42.43
48898;DHT22;34713;50.038;20.000;2022-08-01T15:24:56;28.31;42.70
48898;DHT22;34713;50.038;20.000;2022-08-01T15:27:22;28.27;42.98
48898;DHT22;34713;50.038;20.000;2022-08-01T15:29:49;28.23;42.99
48898;DHT22;34713;50.038;20.000;2022-08-01T15:32:15;28.19;43.01
48898;DHT22;34713;50.038;20.000;2022-08-01T15:34:41;28.13;43.30
48898;DHT22;34713;50.038;20.000;2022-08-01T15:37:08;28.08;43.39
48898;DHT22;34713;50.038;20.000;2022-08-01T15:39:35;28.06;43.51
48898;DHT22;34713;50.038;20.000;2022-08-01T15:42:05;27.99;43.62
48898;DHT22;34713;50.038;20.000;2022-08-01T15:44:32;27.96;43.94
48898;DHT22;34713;50.038;20.000;2022-08-01T15:47:00;27.93;43.94
48898;DHT22;34713;50.038;20.000;2022-08-01T15:49:26;27.88;43.92
48898;DHT22;34713;50.038;20.000;2022-08-01T15:51:52;27.83;44.06
48898;DHT22;34713;50.038;20.000;2022-08-01T15:54:18;27.76;44.08
48898;DHT22;34713;50.038;20.000;2022-08-01T15:56:44;27.72;44.37
48898;DHT22;34713;50.038;20.000;2022-08-01T15:59:10;27.64;44.81